Time;durP1;ratioP1;P1;durP2;ratioP2;P2;SDS_P1;SDS_P2;PMS_P1;PMS_P2;Temp;Humidity;BMP_temperature;BMP_pressure;BME280_temperature;BME280_humidity;BME280_pressure;Samples;Min_cycle;Max_cycle;Signal;HPM_P1;HPM_P2
2021/05/18 00:04:07;;;;;;;5.08;2.70;;;;;;;12.75;69.89;97768.48;263162;1102;114649;-67
2021/05/18 00:14:35;;;;;;;5.03;2.80;;;;;;;12.66;69.90;97773.81;263183;1103;114118;-67
2021/05/18 00:19:39;;;;;;;7.15;3.30;;;;;;;12.65;70.73;97774.80;263226;1101;114779;-65
2021/05/18 00:24:43;;;;;;;4.40;3.28;;;;;;;12.58;70.37;97777.18;263143;1104;114554;-66
2021/05/18 00:29:46;;;;;;;4.80;3.18;;;;;;;12.55;70.33;97774.78;263148;1102;114264;-65
2021/05/18 00:34:54;;;;;;;7.43;4.13;;;;;;;12.57;70.53;97778.17;263192;1098;114448;-65
2021/05/18 00:39:58;;;;;;;5.93;4.00;;;;;;;12.57;70.67;97786.17;263185;1102;114972;-66
2021/05/18 00:45:02;;;;;;;9.38;4.50;;;;;;;12.55;70.58;97790.80;263166;1099;114679;-65
2021/05/18 00:50:06;;;;;;;4.83;3.53;;;;;;;12.55;71.17;97794.30;263200;1103;114443;-66
2021/05/18 00:55:20;;;;;;;6.80;4.05;;;;;;;12.54;70.92;97792.63;263148;1099;115226;-66
2021/05/18 01:00:24;;;;;;;5.45;4.15;;;;;;;12.53;70.73;97796.29;263160;1102;115466;-66
2021/05/18 01:10:50;;;;;;;5.23;4.30;;;;;;;12.44;70.58;97797.10;263214;1099;114643;-66
2021/05/18 01:15:54;;;;;;;7.00;4.45;;;;;;;12.38;70.53;97792.31;263216;1101;114082;-67
2021/05/18 01:21:00;;;;;;;8.05;4.35;;;;;;;12.36;70.40;97798.76;263157;1099;114834;-67
2021/05/18 01:26:04;;;;;;;6.28;4.60;;;;;;;12.33;70.75;97802.56;263213;1100;114848;-67
2021/05/18 01:31:10;;;;;;;6.40;5.30;;;;;;;12.32;70.65;97806.19;263166;1103;114485;-67
2021/05/18 01:36:17;;;;;;;7.10;5.30;;;;;;;12.28;71.15;97802.95;263170;1103;114379;-67
2021/05/18 01:46:46;;;;;;;6.00;5.40;;;;;;;12.26;70.81;97812.94;263158;1099;114367;-68
2021/05/18 01:51:55;;;;;;;7.35;5.83;;;;;;;12.28;71.06;97802.95;262962;1103;114538;-67
2021/05/18 01:57:19;;;;;;;7.25;5.98;;;;;;;12.31;70.74;97817.85;263202;1099;114431;-66
2021/05/18 02:02:43;;;;;;;8.98;6.05;;;;;;;12.27;70.42;97813.77;263172;1097;114799;-68
2021/05/18 02:07:53;;;;;;;7.23;6.05;;;;;;;12.23;70.80;97815.03;263212;1104;114750;-67
2021/05/18 02:12:57;;;;;;;6.68;5.38;;;;;;;12.17;71.20;97823.57;263128;1099;114386;-68
2021/05/18 02:28:41;;;;;;;7.73;5.90;;;;;;;12.13;70.79;97836.33;263173;1102;114550;-69
2021/05/18 02:33:49;;;;;;;7.25;4.93;;;;;;;12.10;70.53;97841.09;263194;1098;114849;-70
2021/05/18 02:38:58;;;;;;;6.27;4.93;;;;;;;12.11;70.79;97845.44;263111;1104;114598;-69
2021/05/18 02:44:15;;;;;;;5.80;4.50;;;;;;;12.10;71.18;97849.93;262984;1099;114900;-69
2021/05/18 02:49:23;;;;;;;7.00;4.58;;;;;;;12.11;70.91;97851.61;263165;1101;114604;-67
2021/05/18 02:54:27;;;;;;;6.13;4.80;;;;;;;12.08;71.49;97860.72;262943;1099;115362;-66
2021/05/18 02:59:35;;;;;;;5.30;4.10;;;;;;;12.05;70.86;97866.31;263193;1102;114954;-66
2021/05/18 03:04:39;;;;;;;4.78;4.08;;;;;;;12.06;71.08;97872.52;263134;1098;114695;-66
2021/05/18 03:09:43;;;;;;;5.10;4.30;;;;;;;12.11;71.24;97880.11;263201;1103;114921;-66
2021/05/18 03:14:46;;;;;;;7.30;5.07;;;;;;;12.12;71.21;97895.95;263153;1099;114395;-67
2021/05/18 03:19:50;;;;;;;6.50;4.65;;;;;;;12.12;71.40;97909.30;263223;1101;114535;-69
2021/05/18 03:24:54;;;;;;;6.03;4.00;;;;;;;12.09;71.41;97912.22;263149;1102;115272;-67
2021/05/18 03:30:12;;;;;;;6.08;4.63;;;;;;;12.10;70.80;97916.60;263190;1103;115181;-67
2021/05/18 03:35:15;;;;;;;6.60;5.45;;;;;;;12.12;71.56;97913.79;263176;1099;114601;-67
2021/05/18 03:40:20;;;;;;;7.60;5.70;;;;;;;12.07;71.71;97915.03;263149;1104;115449;-67
2021/05/18 03:45:26;;;;;;;7.40;5.23;;;;;;;12.06;71.42;97915.19;263173;1100;114825;-68
2021/05/18 04:17:07;;;;;;;8.38;5.03;;;;;;;12.00;71.55;97943.21;263193;1099;114822;-67
2021/05/18 04:48:15;;;;;;;8.03;5.23;;;;;;;11.98;71.29;97954.97;263222;1101;115073;-65
2021/05/18 04:59:49;;;;;;;7.13;5.17;;;;;;;12.03;71.73;97974.11;263142;1100;114530;-68
2021/05/18 05:10:15;;;;;;;6.83;4.93;;;;;;;11.96;71.87;97973.78;263104;1099;114615;-68
2021/05/18 05:15:18;;;;;;;7.25;4.95;;;;;;;11.97;71.84;97977.29;263113;1102;114988;-69
2021/05/18 05:20:22;;;;;;;8.23;5.25;;;;;;;12.02;71.67;97977.73;263107;1100;114903;-69
2021/05/18 05:25:26;;;;;;;7.00;4.90;;;;;;;12.03;72.27;97972.28;263144;1102;115475;-69
2021/05/18 05:30:29;;;;;;;6.98;5.15;;;;;;;12.07;72.59;97979.04;263163;1100;114846;-69
2021/05/18 05:35:33;;;;;;;6.70;4.50;;;;;;;12.09;71.98;97989.56;263176;1103;115926;-68
2021/05/18 05:40:36;;;;;;;8.03;4.78;;;;;;;12.15;72.62;97993.54;263081;1098;115215;-67
2021/05/18 05:45:40;;;;;;;6.63;4.88;;;;;;;12.20;72.18;97992.18;262932;1104;114497;-66
2021/05/18 05:50:45;;;;;;;5.97;4.67;;;;;;;12.30;72.38;97994.91;263167;1098;114649;-67
2021/05/18 05:55:48;;;;;;;6.45;4.60;;;;;;;12.34;72.14;97992.82;263211;1101;114460;-67
2021/05/18 06:00:52;;;;;;;7.10;4.73;;;;;;;12.31;71.58;98002.77;263161;1098;114652;-67
2021/05/18 06:05:56;;;;;;;4.33;3.45;;;;;;;12.37;72.23;98001.41;263133;1102;115052;-69
2021/05/18 06:11:05;;;;;;;5.33;4.08;;;;;;;12.40;72.55;98014.48;263167;1100;114336;-70
2021/05/18 06:43:17;;;;;;;4.60;3.70;;;;;;;12.41;72.35;98028.67;263146;1102;114407;-69
2021/05/18 06:48:21;;;;;;;8.10;4.70;;;;;;;12.38;71.33;98035.11;263165;1099;115058;-68
2021/05/18 06:53:25;;;;;;;4.50;3.30;;;;;;;12.35;72.09;98037.19;262932;1103;116908;-68
2021/05/18 07:04:01;;;;;;;4.17;3.10;;;;;;;12.37;72.11;98048.59;262919;1101;114607;-68
2021/05/18 07:09:05;;;;;;;4.07;2.77;;;;;;;12.38;71.60;98050.27;263158;1098;114666;-68
2021/05/18 07:14:09;;;;;;;3.65;2.20;;;;;;;12.33;71.96;98047.14;263138;1103;114650;-68
2021/05/18 07:19:12;;;;;;;3.15;2.15;;;;;;;12.29;71.60;98044.73;263124;1099;115111;-69
2021/05/18 07:24:21;;;;;;;4.65;2.25;;;;;;;12.36;72.45;98046.88;263116;1102;115301;-66
2021/05/18 07:29:25;;;;;;;3.53;2.43;;;;;;;12.42;71.58;98049.88;263180;1099;114936;-68
2021/05/18 07:34:29;;;;;;;4.80;2.70;;;;;;;12.45;72.33;98049.61;263170;1102;114499;-68
2021/05/18 07:39:33;;;;;;;4.05;2.83;;;;;;;12.48;72.54;98053.84;263146;1103;115197;-68
2021/05/18 07:44:37;;;;;;;3.60;2.70;;;;;;;12.51;72.40;98057.09;263080;1099;118325;-68
2021/05/18 07:49:47;;;;;;;5.73;2.63;;;;;;;12.57;72.15;98073.55;263104;1101;114813;-68
2021/05/18 08:05:27;;;;;;;3.33;2.20;;;;;;;12.61;71.80;98066.99;263055;1103;114735;-69
2021/05/18 08:15:45;;;;;;;3.45;1.83;;;;;;;12.65;72.66;98068.41;263083;1104;114545;-69
2021/05/18 10:26:02;;;;;;;10.90;9.80;;;;;;;13.93;70.59;98147.95;262127;1103;114326;-69
2021/05/18 10:41:25;;;;;;;11.83;9.53;;;;;;;13.69;71.17;98152.83;263161;1103;115454;-70
2021/05/18 10:46:33;;;;;;;8.17;7.37;;;;;;;13.69;70.71;98152.83;263120;1098;114936;-69
2021/05/18 10:51:43;;;;;;;11.07;8.90;;;;;;;13.75;70.94;98154.94;263089;1103;115865;-70
2021/05/18 10:56:53;;;;;;;11.17;9.37;;;;;;;13.80;70.69;98163.41;262904;1098;114817;-70
2021/05/18 11:02:07;;;;;;;10.75;9.65;;;;;;;13.77;71.19;98173.53;263134;1101;114449;-69
2021/05/18 11:07:19;;;;;;;10.33;7.13;;;;;;;13.72;70.53;98177.47;263188;1098;114866;-70
2021/05/18 11:12:24;;;;;;;10.40;8.55;;;;;;;13.72;70.70;98179.27;263197;1101;115326;-70
2021/05/18 11:17:35;;;;;;;10.83;9.30;;;;;;;13.71;71.05;98189.13;263158;1098;115143;-70
2021/05/18 11:28:24;;;;;;;8.55;6.25;;;;;;;13.80;70.77;98189.31;263150;1098;114817;-70
2021/05/18 11:33:33;;;;;;;8.07;6.20;;;;;;;13.80;70.79;98190.15;263174;1103;114904;-70
2021/05/18 11:38:55;;;;;;;7.37;6.17;;;;;;;13.83;71.03;98184.53;263165;1099;114837;-70
2021/05/18 11:44:00;;;;;;;7.80;6.60;;;;;;;13.82;70.14;98190.00;263159;1103;114911;-70
2021/05/18 11:49:08;;;;;;;8.43;7.28;;;;;;;13.84;70.77;98191.56;263142;1099;114797;-70
2021/05/18 11:54:14;;;;;;;6.20;4.95;;;;;;;13.86;70.57;98196.80;263020;1102;114233;-70
2021/05/18 11:59:20;;;;;;;6.93;5.53;;;;;;;13.96;70.06;98193.16;263184;1099;114917;-70
2021/05/18 12:04:26;;;;;;;6.67;5.30;;;;;;;14.11;70.72;98190.92;263182;1103;114474;-70
2021/05/18 12:09:33;;;;;;;6.93;6.13;;;;;;;14.24;70.15;98190.66;263053;1100;114395;-70
2021/05/18 12:14:55;;;;;;;9.03;5.60;;;;;;;14.27;69.56;98205.61;263203;1102;114763;-70
2021/05/18 12:20:00;;;;;;;6.25;4.98;;;;;;;14.29;69.38;98192.91;263209;1099;114494;-70
2021/05/18 12:25:04;;;;;;;8.78;6.18;;;;;;;14.33;70.01;98205.86;263229;1102;115096;-69
2021/05/18 12:30:09;;;;;;;7.25;6.45;;;;;;;14.33;69.27;98202.34;263118;1099;114994;-69
2021/05/18 12:35:19;;;;;;;10.08;7.85;;;;;;;14.29;68.93;98204.45;263200;1101;114474;-69
2021/05/18 12:40:25;;;;;;;8.43;7.53;;;;;;;14.27;69.59;98192.23;262874;1100;114734;-70
2021/05/18 12:45:29;;;;;;;7.48;6.05;;;;;;;14.29;69.12;98198.27;263147;1103;115226;-69
2021/05/18 12:50:49;;;;;;;9.30;6.50;;;;;;;14.32;69.18;98198.83;263114;1099;115062;-69
2021/05/18 12:55:54;;;;;;;6.47;5.40;;;;;;;14.39;68.90;98217.86;263209;1103;114536;-69
2021/05/18 13:01:23;;;;;;;6.57;5.53;;;;;;;14.42;69.17;98215.75;263117;1100;114744;-70
2021/05/18 13:06:27;;;;;;;6.80;5.33;;;;;;;14.45;69.09;98211.95;263139;1102;114563;-68
2021/05/18 13:16:38;;;;;;;7.13;4.83;;;;;;;14.57;68.52;98215.36;263227;1103;114464;-67
2021/05/18 13:22:00;;;;;;;5.20;4.15;;;;;;;14.69;68.48;98222.28;263198;1099;114632;-67
2021/05/18 13:27:07;;;;;;;6.93;4.87;;;;;;;14.77;68.51;98217.05;263138;1098;114907;-67
2021/05/18 13:32:11;;;;;;;10.63;5.20;;;;;;;14.85;68.39;98216.36;263066;1100;115997;-68
2021/05/18 13:37:19;;;;;;;9.33;4.98;;;;;;;14.89;68.03;98213.23;263153;1098;114916;-67
2021/05/18 13:42:43;;;;;;;4.83;4.30;;;;;;;14.97;68.11;98215.20;263158;1101;115139;-67
2021/05/18 13:47:48;;;;;;;4.83;2.95;;;;;;;15.05;67.86;98215.34;263191;1099;114494;-68
2021/05/18 13:52:51;;;;;;;5.40;3.25;;;;;;;15.12;67.86;98216.45;263213;1102;114637;-67
2021/05/18 13:57:55;;;;;;;3.20;2.70;;;;;;;15.25;67.87;98217.96;263172;1099;115372;-68
2021/05/18 14:02:59;;;;;;;5.50;2.75;;;;;;;15.38;67.49;98216.66;263181;1103;114236;-68
2021/05/18 14:13:33;;;;;;;4.20;2.00;;;;;;;15.58;66.68;98209.39;263144;1102;115079;-67
2021/05/18 14:18:37;;;;;;;4.03;1.70;;;;;;;15.63;66.39;98211.65;263188;1103;114968;-67
2021/05/18 14:23:47;;;;;;;4.40;1.40;;;;;;;15.65;65.91;98215.02;263042;1103;115328;-68
2021/05/18 14:28:51;;;;;;;4.58;1.70;;;;;;;15.67;65.77;98210.39;263115;1104;114797;-69
2021/05/18 14:33:56;;;;;;;3.35;1.48;;;;;;;15.65;65.26;98212.33;263122;1100;114587;-69
2021/05/18 14:39:03;;;;;;;3.23;1.25;;;;;;;15.65;65.05;98212.33;263166;1102;114983;-70
2021/05/18 14:44:19;;;;;;;5.63;1.60;;;;;;;15.69;65.01;98211.10;263090;1099;115515;-68
2021/05/18 14:54:51;;;;;;;5.88;2.33;;;;;;;15.89;65.19;98198.41;263156;1101;114262;-70
2021/05/18 14:59:55;;;;;;;5.93;2.40;;;;;;;15.89;64.67;98203.78;262944;1099;114770;-68
2021/05/18 15:04:59;;;;;;;6.80;2.17;;;;;;;15.85;64.30;98205.08;262893;1103;115239;-69
2021/05/18 15:10:04;;;;;;;6.90;2.50;;;;;;;15.83;64.57;98202.55;263138;1099;114471;-69
2021/05/18 15:15:08;;;;;;;5.95;2.33;;;;;;;15.89;64.52;98206.45;263110;1102;115780;-69
2021/05/18 15:20:13;;;;;;;7.60;2.45;;;;;;;15.93;64.64;98213.24;263098;1099;114759;-69
2021/05/18 15:25:18;;;;;;;3.88;2.00;;;;;;;15.96;64.01;98209.39;263118;1102;114285;-68
2021/05/18 15:30:22;;;;;;;10.63;2.35;;;;;;;16.00;64.36;98213.49;263095;1104;114846;-68
2021/05/18 15:35:26;;;;;;;4.25;2.05;;;;;;;16.06;64.54;98202.97;263047;1099;117384;-68
2021/05/18 15:40:30;;;;;;;5.38;1.90;;;;;;;16.12;64.36;98209.59;262940;1103;114714;-65
2021/05/18 15:45:34;;;;;;;6.78;2.30;;;;;;;16.16;64.39;98202.08;263112;1098;114741;-66
2021/05/18 15:50:38;;;;;;;2.87;1.53;;;;;;;16.18;63.93;98211.67;263077;1103;114662;-66
2021/05/18 15:55:46;;;;;;;5.70;3.20;;;;;;;16.14;63.38;98204.92;263075;1100;115234;-65
2021/05/18 16:00:52;;;;;;;5.73;1.60;;;;;;;16.09;63.28;98212.57;263089;1103;114694;-66
2021/05/18 16:06:00;;;;;;;4.30;2.20;;;;;;;16.03;62.98;98208.67;262876;1101;114376;-67
2021/05/18 16:11:09;;;;;;;3.53;1.75;;;;;;;15.96;62.83;98215.59;263138;1102;114892;-65
2021/05/18 16:16:16;;;;;;;4.43;1.77;;;;;;;15.91;62.94;98217.06;263051;1099;115673;-66
2021/05/18 16:21:22;;;;;;;4.37;1.90;;;;;;;15.83;63.04;98236.59;263130;1104;115285;-65
2021/05/18 16:26:28;;;;;;;7.87;1.93;;;;;;;15.73;63.29;98265.30;263086;1099;114792;-66
2021/05/18 16:31:33;;;;;;;3.05;1.45;;;;;;;15.53;63.18;98284.09;263062;1102;115625;-66
2021/05/18 16:36:37;;;;;;;6.38;2.10;;;;;;;15.25;62.60;98296.57;263063;1100;114331;-65
2021/05/18 16:41:42;;;;;;;6.15;1.50;;;;;;;14.85;62.70;98292.20;263123;1102;115720;-66
2021/05/18 16:46:47;;;;;;;3.97;1.30;;;;;;;14.45;63.11;98289.59;262611;1099;114818;-67
2021/05/18 16:51:53;;;;;;;2.03;1.10;;;;;;;14.16;63.94;98293.05;262557;1100;115573;-68
2021/05/18 16:56:58;;;;;;;3.93;1.30;;;;;;;14.00;64.94;98292.71;263056;1102;114710;-66
2021/05/18 17:02:02;;;;;;;2.05;1.23;;;;;;;13.90;64.82;98291.83;263068;1103;114768;-66
2021/05/18 17:07:06;;;;;;;3.48;1.55;;;;;;;13.88;65.70;98294.62;262954;1100;114808;-67
2021/05/18 17:12:18;;;;;;;2.30;1.40;;;;;;;13.86;65.17;98295.75;262996;1104;114697;-68
2021/05/18 17:17:27;;;;;;;1.87;1.57;;;;;;;13.81;65.31;98304.16;263013;1101;115285;-67
2021/05/18 17:22:31;;;;;;;3.68;2.15;;;;;;;13.76;66.30;98311.75;263101;1103;115098;-66
2021/05/18 17:27:37;;;;;;;3.85;1.10;;;;;;;13.69;66.36;98314.11;263081;1099;114999;-65
2021/05/18 17:32:43;;;;;;;2.65;1.78;;;;;;;13.64;65.69;98312.80;262912;1103;114820;-66
2021/05/18 17:37:52;;;;;;;6.20;1.73;;;;;;;13.66;65.96;98324.22;263104;1098;114663;-66
2021/05/18 17:42:58;;;;;;;2.63;1.80;;;;;;;13.69;66.75;98334.66;263077;1102;115429;-66
2021/05/18 17:48:04;;;;;;;4.70;2.03;;;;;;;13.72;66.11;98324.55;263039;1099;114732;-68
2021/05/18 17:53:07;;;;;;;4.18;1.90;;;;;;;13.68;65.98;98327.59;263126;1102;115355;-68
2021/05/18 17:58:13;;;;;;;4.40;2.58;;;;;;;13.66;66.82;98332.24;263107;1100;114472;-66
2021/05/18 18:03:18;;;;;;;4.58;2.13;;;;;;;13.62;66.40;98330.79;263065;1101;114828;-66
2021/05/18 18:08:23;;;;;;;5.73;1.87;;;;;;;13.60;66.28;98332.77;263092;1099;115126;-66
2021/05/18 18:13:27;;;;;;;4.10;1.93;;;;;;;13.62;66.20;98342.36;263070;1101;114778;-68
2021/05/18 18:18:31;;;;;;;6.33;2.25;;;;;;;13.66;67.08;98349.13;263074;1099;114299;-66
2021/05/18 18:23:37;;;;;;;3.38;2.23;;;;;;;13.68;66.62;98343.64;263130;1102;114423;-66
2021/05/18 18:28:41;;;;;;;5.40;2.70;;;;;;;13.63;66.72;98353.89;263089;1099;115529;-66
2021/05/18 18:33:45;;;;;;;5.00;2.70;;;;;;;13.58;66.46;98353.42;263096;1103;114792;-65
2021/05/18 18:38:49;;;;;;;7.57;3.03;;;;;;;13.51;66.45;98366.47;263016;1100;114731;-68
2021/05/18 18:43:53;;;;;;;4.30;2.65;;;;;;;13.47;66.15;98378.41;263048;1102;114638;-67
2021/05/18 18:48:57;;;;;;;7.75;3.20;;;;;;;13.52;66.37;98386.02;263054;1099;115027;-66
2021/05/18 18:54:02;;;;;;;5.60;3.05;;;;;;;13.52;66.80;98394.91;262986;1103;114869;-67
2021/05/18 18:59:06;;;;;;;;;;;;;;;13.48;67.20;98397.00;263081;1098;114715;-68
2021/05/18 19:04:22;;;;;;;12.35;4.35;;;;;;;13.45;66.67;98394.58;263113;1102;102321;-66
2021/05/18 19:14:44;;;;;;;8.80;4.27;;;;;;;13.42;67.36;98405.53;263060;1104;115359;-68
2021/05/18 19:19:48;;;;;;;7.73;4.50;;;;;;;13.44;67.70;98398.20;263132;1099;115174;-65
2021/05/18 19:24:52;;;;;;;8.27;4.97;;;;;;;13.48;67.16;98399.67;263144;1102;114977;-67
2021/05/18 19:29:56;;;;;;;9.17;5.13;;;;;;;13.51;67.46;98411.06;263085;1099;115023;-67
2021/05/18 19:35:00;;;;;;;12.43;6.43;;;;;;;13.48;67.42;98407.69;263138;1103;114329;-65
2021/05/18 19:50:43;;;;;;;11.50;5.80;;;;;;;13.42;67.62;98402.86;263073;1099;116829;-65
2021/05/18 20:22:16;;;;;;;15.57;7.03;;;;;;;13.35;68.26;98415.04;263045;1104;115071;-68
2021/05/18 20:27:21;;;;;;;14.00;7.58;;;;;;;13.35;68.58;98419.51;263058;1098;114685;-68
2021/05/18 20:32:29;;;;;;;14.67;8.00;;;;;;;13.34;68.66;98421.34;263130;1102;115649;-63
2021/05/18 20:42:56;;;;;;;13.13;8.67;;;;;;;13.28;68.02;98421.00;263085;1104;114999;-63
2021/05/18 20:47:59;;;;;;;14.73;8.23;;;;;;;13.21;68.71;98423.30;263024;1104;115031;-63
2021/05/18 20:53:04;;;;;;;14.55;8.78;;;;;;;13.19;68.86;98428.78;263120;1103;116040;-64
2021/05/18 20:58:08;;;;;;;15.75;8.65;;;;;;;13.18;68.83;98434.27;263096;1098;115038;-63
2021/05/18 21:03:11;;;;;;;14.90;9.73;;;;;;;13.16;68.50;98436.20;263156;1103;115941;-65
2021/05/18 21:18:26;;;;;;;16.83;9.40;;;;;;;13.05;68.03;98454.95;263104;1098;114534;-67
2021/05/18 21:23:30;;;;;;;13.35;9.55;;;;;;;13.04;68.48;98451.40;263131;1103;114861;-64
2021/05/18 21:28:34;;;;;;;16.78;9.78;;;;;;;13.07;68.62;98458.32;263134;1098;114680;-65
2021/05/18 21:33:38;;;;;;;15.48;10.05;;;;;;;13.06;68.55;98467.31;263124;1104;115242;-66
2021/05/18 21:38:43;;;;;;;16.95;10.83;;;;;;;13.01;68.83;98463.20;263016;1099;115162;-65
2021/05/18 21:43:46;;;;;;;;;;;;;;;12.96;68.66;98461.87;263166;1102;114912;-65
2021/05/18 21:48:50;;;;;;;16.28;11.60;;;;;;;12.87;68.63;98460.78;263150;1099;101877;-67
2021/05/18 21:53:54;;;;;;;17.80;10.83;;;;;;;12.79;68.56;98455.22;263174;1104;115865;-66
2021/05/18 21:58:58;;;;;;;15.07;10.17;;;;;;;12.76;69.21;98453.64;262766;1099;115334;-67
2021/05/18 22:04:02;;;;;;;20.10;10.53;;;;;;;12.77;68.77;98458.03;262970;1103;114689;-66
2021/05/18 22:09:13;;;;;;;18.73;11.07;;;;;;;12.74;69.05;98466.28;263124;1099;115802;-66
2021/05/18 22:14:29;;;;;;;19.67;11.63;;;;;;;12.72;68.81;98462.88;263160;1103;115343;-67
2021/05/18 22:30:18;;;;;;;16.88;10.63;;;;;;;12.66;68.82;98449.16;263130;1099;115413;-65
2021/05/18 22:35:22;;;;;;;14.53;9.65;;;;;;;12.66;69.43;98449.16;263144;1103;114722;-66
2021/05/18 22:40:26;;;;;;;16.78;10.53;;;;;;;12.60;69.11;98442.52;263185;1098;114944;-65
2021/05/18 22:45:30;;;;;;;15.80;11.13;;;;;;;12.55;68.95;98448.20;263199;1102;115199;-67
2021/05/18 22:50:41;;;;;;;16.80;10.70;;;;;;;12.46;69.19;98440.91;263175;1099;115452;-68
2021/05/18 22:55:46;;;;;;;16.30;10.15;;;;;;;12.47;69.10;98449.80;262343;1101;116171;-66
2021/05/18 23:00:51;;;;;;;15.30;10.28;;;;;;;12.49;69.62;98443.34;261557;1099;115076;-67
2021/05/18 23:05:56;;;;;;;14.73;10.15;;;;;;;12.51;68.83;98441.41;262021;1102;115012;-65
2021/05/18 23:11:02;;;;;;;17.13;10.85;;;;;;;12.50;68.66;98438.88;262499;1102;115300;-68
2021/05/18 23:16:07;;;;;;;17.40;11.60;;;;;;;12.49;69.41;98446.02;261718;1101;116514;-66
2021/05/18 23:21:12;;;;;;;16.40;10.80;;;;;;;12.43;69.55;98449.19;262125;1099;114836;-63
2021/05/18 23:26:17;;;;;;;14.90;10.98;;;;;;;12.36;69.43;98442.61;262912;1104;114922;-67
2021/05/18 23:31:22;;;;;;;16.70;10.90;;;;;;;12.33;69.32;98445.55;262563;1099;114682;-67
2021/05/18 23:36:27;;;;;;;16.48;9.85;;;;;;;12.39;69.23;98446.87;262217;1102;114964;-68
2021/05/18 23:41:31;;;;;;;14.60;10.33;;;;;;;12.42;69.16;98441.29;262607;1103;114411;-67
2021/05/18 23:46:35;;;;;;;15.13;9.95;;;;;;;12.44;69.53;98439.36;263217;1103;114902;-63
2021/05/18 23:51:42;;;;;;;19.60;10.80;;;;;;;12.39;69.08;98442.38;263228;1098;114847;-63
2021/05/18 23:56:50;;;;;;;15.78;10.45;;;;;;;12.36;69.05;98445.28;263055;1103;115158;-67
